sensor_id;sensor_type;location;lat;lon;timestamp;temperature;humidity
9847;DHT22;68671;50.084;8.794;2024-03-02T00:00:07;10.40;99.90
9847;DHT22;68671;50.084;8.794;2024-03-02T00:02:44;10.40;99.90
9847;DHT22;68671;50.084;8.794;2024-03-02T00:05:16;10.40;99.90
9847;DHT22;68671;50.084;8.794;2024-03-02T00:07:53;10.40;99.90
9847;DHT22;68671;50.084;8.794;2024-03-02T00:10:26;10.50;99.90
9847;DHT22;68671;50.084;8.794;2024-03-02T00:13:03;10.50;99.90
9847;DHT22;68671;50.084;8.794;2024-03-02T00:15:42;10.60;99.90
9847;DHT22;68671;50.084;8.794;2024-03-02T00:18:19;10.60;99.90
9847;DHT22;68671;50.084;8.794;2024-03-02T00:20:47;10.60;99.90
9847;DHT22;68671;50.084;8.794;2024-03-02T00:23:16;10.70;99.90
9847;DHT22;68671;50.084;8.794;2024-03-02T00:25:53;10.70;99.90
9847;DHT22;68671;50.084;8.794;2024-03-02T00:28:30;10.70;99.90
9847;DHT22;68671;50.084;8.794;2024-03-02T00:31:07;10.80;99.90
9847;DHT22;68671;50.084;8.794;2024-03-02T00:33:48;10.80;99.90
9847;DHT22;68671;50.084;8.794;2024-03-02T00:36:21;10.70;99.90
9847;DHT22;68671;50.084;8.794;2024-03-02T00:38:51;10.80;99.90
9847;DHT22;68671;50.084;8.794;2024-03-02T00:41:27;10.80;99.90
9847;DHT22;68671;50.084;8.794;2024-03-02T00:44:01;10.70;99.90
9847;DHT22;68671;50.084;8.794;2024-03-02T00:46:42;10.70;99.90
9847;DHT22;68671;50.084;8.794;2024-03-02T00:49:20;10.80;99.90
9847;DHT22;68671;50.084;8.794;2024-03-02T00:51:59;10.70;99.90
9847;DHT22;68671;50.084;8.794;2024-03-02T00:54:30;10.70;99.90
9847;DHT22;68671;50.084;8.794;2024-03-02T00:57:13;10.70;99.90
9847;DHT22;68671;50.084;8.794;2024-03-02T00:59:47;10.70;99.90
9847;DHT22;68671;50.084;8.794;2024-03-02T01:02:21;10.70;99.90
9847;DHT22;68671;50.084;8.794;2024-03-02T01:04:51;10.80;99.90
9847;DHT22;68671;50.084;8.794;2024-03-02T01:07:19;10.90;99.90
9847;DHT22;68671;50.084;8.794;2024-03-02T01:09:54;10.90;99.90
9847;DHT22;68671;50.084;8.794;2024-03-02T01:12:25;11.00;99.90
9847;DHT22;68671;50.084;8.794;2024-03-02T01:14:57;11.00;99.90
9847;DHT22;68671;50.084;8.794;2024-03-02T01:17:25;11.10;99.90
9847;DHT22;68671;50.084;8.794;2024-03-02T01:20:00;11.20;99.90
9847;DHT22;68671;50.084;8.794;2024-03-02T01:22:34;11.30;99.90
9847;DHT22;68671;50.084;8.794;2024-03-02T01:25:10;11.30;99.90
9847;DHT22;68671;50.084;8.794;2024-03-02T01:27:47;11.40;99.90
9847;DHT22;68671;50.084;8.794;2024-03-02T01:30:18;11.40;99.90
9847;DHT22;68671;50.084;8.794;2024-03-02T01:32:52;11.50;99.90
9847;DHT22;68671;50.084;8.794;2024-03-02T01:35:32;11.40;99.90
9847;DHT22;68671;50.084;8.794;2024-03-02T01:38:00;11.50;99.90
9847;DHT22;68671;50.084;8.794;2024-03-02T01:40:31;11.50;99.90
9847;DHT22;68671;50.084;8.794;2024-03-02T01:43:04;11.50;99.90
9847;DHT22;68671;50.084;8.794;2024-03-02T01:45:36;11.50;99.90
9847;DHT22;68671;50.084;8.794;2024-03-02T01:48:09;11.50;99.90
9847;DHT22;68671;50.084;8.794;2024-03-02T01:50:43;11.50;99.90
9847;DHT22;68671;50.084;8.794;2024-03-02T01:53:12;11.50;99.90
9847;DHT22;68671;50.084;8.794;2024-03-02T01:55:48;11.60;99.90
9847;DHT22;68671;50.084;8.794;2024-03-02T01:58:15;11.50;99.90
9847;DHT22;68671;50.084;8.794;2024-03-02T02:00:46;11.50;99.90
9847;DHT22;68671;50.084;8.794;2024-03-02T02:03:20;11.40;99.90
9847;DHT22;68671;50.084;8.794;2024-03-02T02:05:51;11.40;99.90
9847;DHT22;68671;50.084;8.794;2024-03-02T02:08:21;11.30;99.90
9847;DHT22;68671;50.084;8.794;2024-03-02T02:10:50;11.30;99.90
9847;DHT22;68671;50.084;8.794;2024-03-02T02:13:21;11.20;99.90
9847;DHT22;68671;50.084;8.794;2024-03-02T02:15:49;11.10;99.90
9847;DHT22;68671;50.084;8.794;2024-03-02T02:18:21;11.10;99.90
9847;DHT22;68671;50.084;8.794;2024-03-02T02:20:51;11.00;99.90
9847;DHT22;68671;50.084;8.794;2024-03-02T02:23:20;11.00;99.90
9847;DHT22;68671;50.084;8.794;2024-03-02T02:25:56;11.00;99.90
9847;DHT22;68671;50.084;8.794;2024-03-02T02:28:28;11.00;99.90
9847;DHT22;68671;50.084;8.794;2024-03-02T02:30:56;11.00;99.90
9847;DHT22;68671;50.084;8.794;2024-03-02T02:33:25;11.10;99.90
9847;DHT22;68671;50.084;8.794;2024-03-02T02:35:56;11.20;99.90
9847;DHT22;68671;50.084;8.794;2024-03-02T02:38:25;11.20;99.90
9847;DHT22;68671;50.084;8.794;2024-03-02T02:40:52;11.30;99.90
9847;DHT22;68671;50.084;8.794;2024-03-02T02:43:18;11.30;99.90
9847;DHT22;68671;50.084;8.794;2024-03-02T02:45:47;11.40;99.90
9847;DHT22;68671;50.084;8.794;2024-03-02T02:48:17;11.50;99.90
9847;DHT22;68671;50.084;8.794;2024-03-02T02:50:46;11.60;99.90
9847;DHT22;68671;50.084;8.794;2024-03-02T02:53:20;11.60;99.90
9847;DHT22;68671;50.084;8.794;2024-03-02T02:55:51;11.60;99.90
9847;DHT22;68671;50.084;8.794;2024-03-02T02:58:23;11.70;99.90
9847;DHT22;68671;50.084;8.794;2024-03-02T03:00:50;11.60;99.90
9847;DHT22;68671;50.084;8.794;2024-03-02T03:03:22;11.70;99.90
9847;DHT22;68671;50.084;8.794;2024-03-02T03:05:50;11.60;99.90
9847;DHT22;68671;50.084;8.794;2024-03-02T03:08:20;11.60;99.90
9847;DHT22;68671;50.084;8.794;2024-03-02T03:10:51;11.60;99.90
9847;DHT22;68671;50.084;8.794;2024-03-02T03:13:24;11.60;99.90
9847;DHT22;68671;50.084;8.794;2024-03-02T03:15:54;11.70;99.90
9847;DHT22;68671;50.084;8.794;2024-03-02T03:18:25;11.70;99.90
9847;DHT22;68671;50.084;8.794;2024-03-02T03:20:56;11.80;99.90
9847;DHT22;68671;50.084;8.794;2024-03-02T03:23:32;11.90;99.90
9847;DHT22;68671;50.084;8.794;2024-03-02T03:26:01;12.00;99.90
9847;DHT22;68671;50.084;8.794;2024-03-02T03:28:30;12.00;99.90
9847;DHT22;68671;50.084;8.794;2024-03-02T03:31:06;12.00;99.90
9847;DHT22;68671;50.084;8.794;2024-03-02T03:33:38;12.20;99.90
9847;DHT22;68671;50.084;8.794;2024-03-02T03:36:08;12.30;99.90
9847;DHT22;68671;50.084;8.794;2024-03-02T03:38:40;12.30;99.90
9847;DHT22;68671;50.084;8.794;2024-03-02T03:41:16;12.30;99.90
9847;DHT22;68671;50.084;8.794;2024-03-02T03:43:43;12.30;99.90
9847;DHT22;68671;50.084;8.794;2024-03-02T03:46:15;12.30;99.90
9847;DHT22;68671;50.084;8.794;2024-03-02T03:48:45;12.30;99.90
9847;DHT22;68671;50.084;8.794;2024-03-02T03:51:14;12.30;99.90
9847;DHT22;68671;50.084;8.794;2024-03-02T03:53:42;12.30;99.90
9847;DHT22;68671;50.084;8.794;2024-03-02T03:56:12;12.30;99.90
9847;DHT22;68671;50.084;8.794;2024-03-02T03:58:41;12.30;99.90
9847;DHT22;68671;50.084;8.794;2024-03-02T04:01:09;12.20;99.90
9847;DHT22;68671;50.084;8.794;2024-03-02T04:03:36;12.20;99.90
9847;DHT22;68671;50.084;8.794;2024-03-02T04:06:09;12.10;99.90
9847;DHT22;68671;50.084;8.794;2024-03-02T04:08:36;12.10;99.90
9847;DHT22;68671;50.084;8.794;2024-03-02T04:11:06;12.10;99.90
9847;DHT22;68671;50.084;8.794;2024-03-02T04:13:37;12.20;99.90
9847;DHT22;68671;50.084;8.794;2024-03-02T04:16:08;12.20;99.90
9847;DHT22;68671;50.084;8.794;2024-03-02T04:18:44;12.20;99.90
9847;DHT22;68671;50.084;8.794;2024-03-02T04:21:17;12.20;99.90
9847;DHT22;68671;50.084;8.794;2024-03-02T04:23:50;12.10;99.90
9847;DHT22;68671;50.084;8.794;2024-03-02T04:26:23;12.00;99.90
9847;DHT22;68671;50.084;8.794;2024-03-02T04:28:55;12.00;99.90
9847;DHT22;68671;50.084;8.794;2024-03-02T04:31:25;11.80;99.90
9847;DHT22;68671;50.084;8.794;2024-03-02T04:33:58;11.80;99.90
9847;DHT22;68671;50.084;8.794;2024-03-02T04:36:25;11.80;99.90
9847;DHT22;68671;50.084;8.794;2024-03-02T04:39:03;11.80;99.90
9847;DHT22;68671;50.084;8.794;2024-03-02T04:41:43;11.80;99.90
9847;DHT22;68671;50.084;8.794;2024-03-02T04:44:11;11.80;99.90
9847;DHT22;68671;50.084;8.794;2024-03-02T04:46:39;11.70;99.90
9847;DHT22;68671;50.084;8.794;2024-03-02T04:49:06;11.70;99.90
9847;DHT22;68671;50.084;8.794;2024-03-02T04:51:33;11.60;99.90
9847;DHT22;68671;50.084;8.794;2024-03-02T04:54:01;11.50;99.90
9847;DHT22;68671;50.084;8.794;2024-03-02T04:56:28;11.40;99.90
9847;DHT22;68671;50.084;8.794;2024-03-02T04:59:13;11.40;99.90
9847;DHT22;68671;50.084;8.794;2024-03-02T05:01:43;11.30;99.90
9847;DHT22;68671;50.084;8.794;2024-03-02T05:04:10;11.30;99.90
9847;DHT22;68671;50.084;8.794;2024-03-02T05:06:38;11.20;99.90
9847;DHT22;68671;50.084;8.794;2024-03-02T05:09:06;11.20;99.90
9847;DHT22;68671;50.084;8.794;2024-03-02T05:11:33;11.20;99.90
9847;DHT22;68671;50.084;8.794;2024-03-02T05:14:26;11.10;99.90
9847;DHT22;68671;50.084;8.794;2024-03-02T05:16:56;11.10;99.90
9847;DHT22;68671;50.084;8.794;2024-03-02T05:19:23;11.00;99.90
9847;DHT22;68671;50.084;8.794;2024-03-02T05:21:50;10.90;99.90
9847;DHT22;68671;50.084;8.794;2024-03-02T05:24:17;10.80;99.90
9847;DHT22;68671;50.084;8.794;2024-03-02T05:26:44;10.80;99.90
9847;DHT22;68671;50.084;8.794;2024-03-02T05:29:12;10.90;99.90
9847;DHT22;68671;50.084;8.794;2024-03-02T05:31:40;10.80;99.90
9847;DHT22;68671;50.084;8.794;2024-03-02T05:34:08;10.90;99.90
9847;DHT22;68671;50.084;8.794;2024-03-02T05:36:34;10.80;99.90
9847;DHT22;68671;50.084;8.794;2024-03-02T05:39:04;10.80;99.90
9847;DHT22;68671;50.084;8.794;2024-03-02T05:41:32;10.80;99.90
9847;DHT22;68671;50.084;8.794;2024-03-02T05:43:59;10.80;99.90
9847;DHT22;68671;50.084;8.794;2024-03-02T05:46:26;10.80;99.90
9847;DHT22;68671;50.084;8.794;2024-03-02T05:48:55;10.80;99.90
9847;DHT22;68671;50.084;8.794;2024-03-02T05:51:25;10.80;99.90
9847;DHT22;68671;50.084;8.794;2024-03-02T05:53:53;10.80;99.90
9847;DHT22;68671;50.084;8.794;2024-03-02T05:56:20;10.70;99.90
9847;DHT22;68671;50.084;8.794;2024-03-02T05:58:47;10.80;99.90
9847;DHT22;68671;50.084;8.794;2024-03-02T06:01:26;10.80;99.90
9847;DHT22;68671;50.084;8.794;2024-03-02T06:03:57;10.80;99.90
9847;DHT22;68671;50.084;8.794;2024-03-02T06:06:25;10.80;99.90
9847;DHT22;68671;50.084;8.794;2024-03-02T06:08:53;10.70;99.90
9847;DHT22;68671;50.084;8.794;2024-03-02T06:11:20;10.70;99.90
9847;DHT22;68671;50.084;8.794;2024-03-02T06:13:47;10.60;99.90
9847;DHT22;68671;50.084;8.794;2024-03-02T06:16:14;10.60;99.90
9847;DHT22;68671;50.084;8.794;2024-03-02T06:18:41;10.60;99.90
9847;DHT22;68671;50.084;8.794;2024-03-02T06:21:09;10.60;99.90
9847;DHT22;68671;50.084;8.794;2024-03-02T06:23:36;10.50;99.90
9847;DHT22;68671;50.084;8.794;2024-03-02T06:26:03;10.50;99.90
9847;DHT22;68671;50.084;8.794;2024-03-02T06:28:30;10.40;99.90
9847;DHT22;68671;50.084;8.794;2024-03-02T06:31:00;10.30;99.90
9847;DHT22;68671;50.084;8.794;2024-03-02T06:33:48;10.30;99.90
9847;DHT22;68671;50.084;8.794;2024-03-02T06:36:29;10.30;99.90
9847;DHT22;68671;50.084;8.794;2024-03-02T06:38:59;10.30;99.90
9847;DHT22;68671;50.084;8.794;2024-03-02T06:41:26;10.30;99.90
9847;DHT22;68671;50.084;8.794;2024-03-02T06:43:56;10.40;99.90
9847;DHT22;68671;50.084;8.794;2024-03-02T06:46:25;10.40;99.90
9847;DHT22;68671;50.084;8.794;2024-03-02T06:48:52;10.40;99.90
9847;DHT22;68671;50.084;8.794;2024-03-02T06:51:20;10.40;99.90
9847;DHT22;68671;50.084;8.794;2024-03-02T06:53:47;10.50;99.90
9847;DHT22;68671;50.084;8.794;2024-03-02T06:56:14;10.60;99.90
9847;DHT22;68671;50.084;8.794;2024-03-02T06:58:41;10.60;99.90
9847;DHT22;68671;50.084;8.794;2024-03-02T07:01:08;10.60;99.90
9847;DHT22;68671;50.084;8.794;2024-03-02T07:03:36;10.60;99.90
9847;DHT22;68671;50.084;8.794;2024-03-02T07:06:05;10.80;99.90
9847;DHT22;68671;50.084;8.794;2024-03-02T07:08:36;11.10;99.90
9847;DHT22;68671;50.084;8.794;2024-03-02T07:11:03;11.30;99.90
9847;DHT22;68671;50.084;8.794;2024-03-02T07:13:30;11.70;99.90
9847;DHT22;68671;50.084;8.794;2024-03-02T07:15:57;11.90;99.90
9847;DHT22;68671;50.084;8.794;2024-03-02T07:18:49;12.10;99.90
9847;DHT22;68671;50.084;8.794;2024-03-02T07:21:18;12.20;99.90
9847;DHT22;68671;50.084;8.794;2024-03-02T07:23:48;12.30;99.90
9847;DHT22;68671;50.084;8.794;2024-03-02T07:26:27;12.50;99.90
9847;DHT22;68671;50.084;8.794;2024-03-02T07:28:57;12.60;99.90
9847;DHT22;68671;50.084;8.794;2024-03-02T07:31:24;12.90;99.90
9847;DHT22;68671;50.084;8.794;2024-03-02T07:33:51;13.10;99.90
9847;DHT22;68671;50.084;8.794;2024-03-02T07:36:21;13.20;99.90
9847;DHT22;68671;50.084;8.794;2024-03-02T07:38:53;13.30;99.90
9847;DHT22;68671;50.084;8.794;2024-03-02T07:41:20;13.30;99.90
9847;DHT22;68671;50.084;8.794;2024-03-02T07:43:49;13.20;99.90
9847;DHT22;68671;50.084;8.794;2024-03-02T07:46:17;13.20;99.90
9847;DHT22;68671;50.084;8.794;2024-03-02T07:48:47;13.20;99.90
9847;DHT22;68671;50.084;8.794;2024-03-02T07:59:50;13.00;99.90
9847;DHT22;68671;50.084;8.794;2024-03-02T08:02:18;13.10;99.90
9847;DHT22;68671;50.084;8.794;2024-03-02T08:04:47;13.00;99.90
9847;DHT22;68671;50.084;8.794;2024-03-02T08:07:15;13.00;99.90
9847;DHT22;68671;50.084;8.794;2024-03-02T08:09:43;13.00;99.90
9847;DHT22;68671;50.084;8.794;2024-03-02T08:12:16;12.90;99.90
9847;DHT22;68671;50.084;8.794;2024-03-02T08:15:01;12.90;99.90
9847;DHT22;68671;50.084;8.794;2024-03-02T08:17:31;12.90;99.90
9847;DHT22;68671;50.084;8.794;2024-03-02T08:19:59;12.90;99.90
9847;DHT22;68671;50.084;8.794;2024-03-02T08:22:49;12.90;99.90
9847;DHT22;68671;50.084;8.794;2024-03-02T08:25:21;12.90;99.90
9847;DHT22;68671;50.084;8.794;2024-03-02T08:28:02;13.00;99.90
9847;DHT22;68671;50.084;8.794;2024-03-02T08:30:37;13.00;99.90
9847;DHT22;68671;50.084;8.794;2024-03-02T08:33:11;13.00;99.90
9847;DHT22;68671;50.084;8.794;2024-03-02T08:35:42;13.00;99.90
9847;DHT22;68671;50.084;8.794;2024-03-02T08:38:09;13.10;99.90
9847;DHT22;68671;50.084;8.794;2024-03-02T08:40:39;13.10;99.90
9847;DHT22;68671;50.084;8.794;2024-03-02T08:43:22;13.20;99.90
9847;DHT22;68671;50.084;8.794;2024-03-02T08:45:56;13.20;99.90
9847;DHT22;68671;50.084;8.794;2024-03-02T08:48:24;13.30;99.90
9847;DHT22;68671;50.084;8.794;2024-03-02T08:50:51;13.30;99.90
9847;DHT22;68671;50.084;8.794;2024-03-02T08:53:22;13.30;99.90
9847;DHT22;68671;50.084;8.794;2024-03-02T08:55:55;13.30;99.90
9847;DHT22;68671;50.084;8.794;2024-03-02T09:05:17;13.20;99.90
9847;DHT22;68671;50.084;8.794;2024-03-02T09:24:29;13.40;99.90
9847;DHT22;68671;50.084;8.794;2024-03-02T09:26:58;13.40;99.90
9847;DHT22;68671;50.084;8.794;2024-03-02T09:29:30;13.40;99.90
9847;DHT22;68671;50.084;8.794;2024-03-02T09:31:59;13.40;99.90
9847;DHT22;68671;50.084;8.794;2024-03-02T09:34:26;13.40;99.90
9847;DHT22;68671;50.084;8.794;2024-03-02T09:36:53;13.40;99.90
9847;DHT22;68671;50.084;8.794;2024-03-02T09:39:22;13.40;99.90
9847;DHT22;68671;50.084;8.794;2024-03-02T09:41:51;13.40;99.90
9847;DHT22;68671;50.084;8.794;2024-03-02T09:44:34;13.30;99.90
9847;DHT22;68671;50.084;8.794;2024-03-02T09:50:53;13.30;99.90
9847;DHT22;68671;50.084;8.794;2024-03-02T09:53:33;13.30;99.90
9847;DHT22;68671;50.084;8.794;2024-03-02T09:59:34;13.40;99.90
9847;DHT22;68671;50.084;8.794;2024-03-02T10:02:10;13.40;99.90
9847;DHT22;68671;50.084;8.794;2024-03-02T10:04:37;13.50;99.90
9847;DHT22;68671;50.084;8.794;2024-03-02T10:07:24;13.50;99.90
9847;DHT22;68671;50.084;8.794;2024-03-02T10:09:54;13.50;99.90
9847;DHT22;68671;50.084;8.794;2024-03-02T10:12:26;13.60;99.90
9847;DHT22;68671;50.084;8.794;2024-03-02T10:15:08;13.70;99.90
9847;DHT22;68671;50.084;8.794;2024-03-02T10:17:42;13.70;99.90
9847;DHT22;68671;50.084;8.794;2024-03-02T10:20:24;13.80;99.90
9847;DHT22;68671;50.084;8.794;2024-03-02T10:23:14;13.90;99.90
9847;DHT22;68671;50.084;8.794;2024-03-02T10:25:47;14.00;99.90
9847;DHT22;68671;50.084;8.794;2024-03-02T10:28:36;14.00;99.90
9847;DHT22;68671;50.084;8.794;2024-03-02T10:31:08;14.10;99.90
9847;DHT22;68671;50.084;8.794;2024-03-02T10:33:36;14.10;99.90
9847;DHT22;68671;50.084;8.794;2024-03-02T10:36:26;14.20;99.90
9847;DHT22;68671;50.084;8.794;2024-03-02T10:39:11;14.20;99.90
9847;DHT22;68671;50.084;8.794;2024-03-02T10:42:20;14.30;99.90
9847;DHT22;68671;50.084;8.794;2024-03-02T10:44:53;14.40;99.90
9847;DHT22;68671;50.084;8.794;2024-03-02T10:47:22;14.40;99.90
9847;DHT22;68671;50.084;8.794;2024-03-02T10:50:09;14.50;99.90
9847;DHT22;68671;50.084;8.794;2024-03-02T10:52:42;14.50;99.90
9847;DHT22;68671;50.084;8.794;2024-03-02T10:55:10;14.60;99.90
9847;DHT22;68671;50.084;8.794;2024-03-02T10:57:51;14.60;99.90
9847;DHT22;68671;50.084;8.794;2024-03-02T11:00:41;14.60;99.90
9847;DHT22;68671;50.084;8.794;2024-03-02T11:03:12;14.60;99.90
9847;DHT22;68671;50.084;8.794;2024-03-02T11:05:43;14.60;99.90
9847;DHT22;68671;50.084;8.794;2024-03-02T11:08:13;14.60;99.90
9847;DHT22;68671;50.084;8.794;2024-03-02T11:10:44;14.60;99.90
9847;DHT22;68671;50.084;8.794;2024-03-02T11:13:13;14.60;99.90
9847;DHT22;68671;50.084;8.794;2024-03-02T11:15:43;14.70;99.90
9847;DHT22;68671;50.084;8.794;2024-03-02T11:18:11;14.70;99.90
9847;DHT22;68671;50.084;8.794;2024-03-02T11:20:40;14.70;99.70
9847;DHT22;68671;50.084;8.794;2024-03-02T11:23:08;14.70;99.90
9847;DHT22;68671;50.084;8.794;2024-03-02T11:25:36;14.70;99.90
9847;DHT22;68671;50.084;8.794;2024-03-02T11:28:05;14.60;99.90
9847;DHT22;68671;50.084;8.794;2024-03-02T11:30:52;14.60;99.90
9847;DHT22;68671;50.084;8.794;2024-03-02T11:33:26;14.60;99.90
9847;DHT22;68671;50.084;8.794;2024-03-02T11:35:57;14.70;99.90
9847;DHT22;68671;50.084;8.794;2024-03-02T11:38:29;14.70;99.60
9847;DHT22;68671;50.084;8.794;2024-03-02T11:40:57;14.70;99.30
9847;DHT22;68671;50.084;8.794;2024-03-02T11:43:25;14.80;99.00
9847;DHT22;68671;50.084;8.794;2024-03-02T11:46:00;14.80;98.80
9847;DHT22;68671;50.084;8.794;2024-03-02T11:48:32;14.90;99.10
9847;DHT22;68671;50.084;8.794;2024-03-02T11:51:00;14.90;99.00
9847;DHT22;68671;50.084;8.794;2024-03-02T11:53:28;15.00;99.20
9847;DHT22;68671;50.084;8.794;2024-03-02T11:55:55;15.00;98.70
9847;DHT22;68671;50.084;8.794;2024-03-02T11:58:23;15.10;98.80
9847;DHT22;68671;50.084;8.794;2024-03-02T12:00:52;15.10;98.70
9847;DHT22;68671;50.084;8.794;2024-03-02T12:03:25;15.10;98.70
9847;DHT22;68671;50.084;8.794;2024-03-02T12:05:53;15.20;98.40
9847;DHT22;68671;50.084;8.794;2024-03-02T12:08:21;15.20;98.30
9847;DHT22;68671;50.084;8.794;2024-03-02T12:10:58;15.20;98.10
9847;DHT22;68671;50.084;8.794;2024-03-02T12:13:26;15.30;98.10
9847;DHT22;68671;50.084;8.794;2024-03-02T12:15:56;15.30;98.30
9847;DHT22;68671;50.084;8.794;2024-03-02T12:18:25;15.40;98.50
9847;DHT22;68671;50.084;8.794;2024-03-02T12:20:56;15.40;98.30
9847;DHT22;68671;50.084;8.794;2024-03-02T12:23:25;15.50;97.90
9847;DHT22;68671;50.084;8.794;2024-03-02T12:25:53;15.50;97.40
9847;DHT22;68671;50.084;8.794;2024-03-02T12:28:35;15.60;97.10
9847;DHT22;68671;50.084;8.794;2024-03-02T12:31:02;15.60;97.30
9847;DHT22;68671;50.084;8.794;2024-03-02T12:33:30;15.70;96.90
9847;DHT22;68671;50.084;8.794;2024-03-02T12:35:57;15.70;96.80
9847;DHT22;68671;50.084;8.794;2024-03-02T12:38:25;15.70;96.80
9847;DHT22;68671;50.084;8.794;2024-03-02T12:40:52;15.70;96.70
9847;DHT22;68671;50.084;8.794;2024-03-02T12:43:19;15.70;96.60
9847;DHT22;68671;50.084;8.794;2024-03-02T12:45:46;15.70;96.30
9847;DHT22;68671;50.084;8.794;2024-03-02T12:48:13;15.70;96.20
9847;DHT22;68671;50.084;8.794;2024-03-02T12:50:42;15.60;96.10
9847;DHT22;68671;50.084;8.794;2024-03-02T12:53:14;15.70;95.90
9847;DHT22;68671;50.084;8.794;2024-03-02T12:55:42;15.80;95.70
9847;DHT22;68671;50.084;8.794;2024-03-02T12:58:16;15.80;95.60
9847;DHT22;68671;50.084;8.794;2024-03-02T13:00:43;15.90;95.50
9847;DHT22;68671;50.084;8.794;2024-03-02T13:03:11;16.00;95.50
9847;DHT22;68671;50.084;8.794;2024-03-02T13:05:39;16.10;95.50
9847;DHT22;68671;50.084;8.794;2024-03-02T13:08:08;16.10;95.40
9847;DHT22;68671;50.084;8.794;2024-03-02T13:10:35;16.10;95.40
9847;DHT22;68671;50.084;8.794;2024-03-02T13:13:02;16.30;95.40
9847;DHT22;68671;50.084;8.794;2024-03-02T13:15:28;16.40;95.30
9847;DHT22;68671;50.084;8.794;2024-03-02T13:17:58;16.40;95.20
9847;DHT22;68671;50.084;8.794;2024-03-02T13:20:30;16.50;95.20
9847;DHT22;68671;50.084;8.794;2024-03-02T13:22:58;16.50;94.90
9847;DHT22;68671;50.084;8.794;2024-03-02T13:25:30;16.60;94.70
9847;DHT22;68671;50.084;8.794;2024-03-02T13:27:57;16.70;94.70
9847;DHT22;68671;50.084;8.794;2024-03-02T13:30:28;16.60;94.50
9847;DHT22;68671;50.084;8.794;2024-03-02T13:32:55;16.60;94.20
9847;DHT22;68671;50.084;8.794;2024-03-02T13:35:22;16.50;94.00
9847;DHT22;68671;50.084;8.794;2024-03-02T13:37:52;16.40;93.90
9847;DHT22;68671;50.084;8.794;2024-03-02T13:40:19;16.10;93.80
9847;DHT22;68671;50.084;8.794;2024-03-02T13:42:50;16.20;93.90
9847;DHT22;68671;50.084;8.794;2024-03-02T13:45:19;16.20;93.90
9847;DHT22;68671;50.084;8.794;2024-03-02T13:47:46;15.80;93.60
9847;DHT22;68671;50.084;8.794;2024-03-02T13:50:13;16.00;93.90
9847;DHT22;68671;50.084;8.794;2024-03-02T13:52:40;16.00;94.00
9847;DHT22;68671;50.084;8.794;2024-03-02T13:55:07;16.00;94.20
9847;DHT22;68671;50.084;8.794;2024-03-02T13:57:34;16.00;94.20
9847;DHT22;68671;50.084;8.794;2024-03-02T14:00:08;15.90;94.20
9847;DHT22;68671;50.084;8.794;2024-03-02T14:02:41;15.90;94.20
9847;DHT22;68671;50.084;8.794;2024-03-02T14:05:14;15.90;94.40
9847;DHT22;68671;50.084;8.794;2024-03-02T14:07:41;16.00;94.50
9847;DHT22;68671;50.084;8.794;2024-03-02T14:10:14;16.20;94.50
9847;DHT22;68671;50.084;8.794;2024-03-02T14:12:43;16.20;94.40
9847;DHT22;68671;50.084;8.794;2024-03-02T14:15:19;16.30;94.30
9847;DHT22;68671;50.084;8.794;2024-03-02T14:17:59;16.40;94.00
9847;DHT22;68671;50.084;8.794;2024-03-02T14:20:26;16.50;93.80
9847;DHT22;68671;50.084;8.794;2024-03-02T14:22:53;16.30;93.40
9847;DHT22;68671;50.084;8.794;2024-03-02T14:25:20;16.30;93.50
9847;DHT22;68671;50.084;8.794;2024-03-02T14:27:47;16.20;93.70
9847;DHT22;68671;50.084;8.794;2024-03-02T14:30:16;16.30;93.80
9847;DHT22;68671;50.084;8.794;2024-03-02T14:32:43;16.30;93.70
9847;DHT22;68671;50.084;8.794;2024-03-02T14:35:10;16.30;93.50
9847;DHT22;68671;50.084;8.794;2024-03-02T14:37:37;16.20;93.50
9847;DHT22;68671;50.084;8.794;2024-03-02T14:40:05;16.30;93.50
9847;DHT22;68671;50.084;8.794;2024-03-02T14:43:10;16.30;93.60
9847;DHT22;68671;50.084;8.794;2024-03-02T14:45:58;16.30;93.50
9847;DHT22;68671;50.084;8.794;2024-03-02T14:48:26;16.40;93.20
9847;DHT22;68671;50.084;8.794;2024-03-02T14:50:56;16.30;93.20
9847;DHT22;68671;50.084;8.794;2024-03-02T14:53:24;16.20;93.30
9847;DHT22;68671;50.084;8.794;2024-03-02T14:55:51;16.50;93.40
9847;DHT22;68671;50.084;8.794;2024-03-02T14:58:18;16.60;93.40
9847;DHT22;68671;50.084;8.794;2024-03-02T15:00:45;16.50;93.00
9847;DHT22;68671;50.084;8.794;2024-03-02T15:03:13;16.60;92.80
9847;DHT22;68671;50.084;8.794;2024-03-02T15:05:41;16.50;92.80
9847;DHT22;68671;50.084;8.794;2024-03-02T15:08:08;16.60;92.80
9847;DHT22;68671;50.084;8.794;2024-03-02T15:10:36;16.60;92.70
9847;DHT22;68671;50.084;8.794;2024-03-02T15:13:03;16.60;93.10
9847;DHT22;68671;50.084;8.794;2024-03-02T15:15:31;16.60;92.70
9847;DHT22;68671;50.084;8.794;2024-03-02T15:18:03;16.50;92.60
9847;DHT22;68671;50.084;8.794;2024-03-02T15:20:32;16.60;92.60
9847;DHT22;68671;50.084;8.794;2024-03-02T15:23:01;16.50;92.50
9847;DHT22;68671;50.084;8.794;2024-03-02T15:25:29;16.50;92.80
9847;DHT22;68671;50.084;8.794;2024-03-02T15:28:03;16.40;92.50
9847;DHT22;68671;50.084;8.794;2024-03-02T15:30:30;16.40;92.60
9847;DHT22;68671;50.084;8.794;2024-03-02T15:32:57;16.30;92.80
9847;DHT22;68671;50.084;8.794;2024-03-02T15:35:26;16.20;93.00
9847;DHT22;68671;50.084;8.794;2024-03-02T15:37:55;16.10;93.20
9847;DHT22;68671;50.084;8.794;2024-03-02T15:40:24;16.10;93.40
9847;DHT22;68671;50.084;8.794;2024-03-02T15:42:54;16.10;93.40
9847;DHT22;68671;50.084;8.794;2024-03-02T15:45:22;16.00;93.40
9847;DHT22;68671;50.084;8.794;2024-03-02T15:48:03;15.90;93.40
9847;DHT22;68671;50.084;8.794;2024-03-02T15:50:33;15.90;93.60
9847;DHT22;68671;50.084;8.794;2024-03-02T15:53:07;15.80;93.70
9847;DHT22;68671;50.084;8.794;2024-03-02T15:55:35;15.80;93.80
9847;DHT22;68671;50.084;8.794;2024-03-02T15:58:03;15.70;93.90
9847;DHT22;68671;50.084;8.794;2024-03-02T16:00:33;15.70;93.90
9847;DHT22;68671;50.084;8.794;2024-03-02T16:03:01;15.70;94.00
9847;DHT22;68671;50.084;8.794;2024-03-02T16:05:28;15.70;94.20
9847;DHT22;68671;50.084;8.794;2024-03-02T16:07:55;15.70;94.30
9847;DHT22;68671;50.084;8.794;2024-03-02T16:10:24;15.70;94.50
9847;DHT22;68671;50.084;8.794;2024-03-02T16:12:52;15.70;94.50
9847;DHT22;68671;50.084;8.794;2024-03-02T16:15:21;15.70;94.60
9847;DHT22;68671;50.084;8.794;2024-03-02T16:17:51;15.70;94.70
9847;DHT22;68671;50.084;8.794;2024-03-02T16:20:18;15.70;94.70
9847;DHT22;68671;50.084;8.794;2024-03-02T16:22:45;15.70;94.80
9847;DHT22;68671;50.084;8.794;2024-03-02T16:25:12;15.70;95.20
9847;DHT22;68671;50.084;8.794;2024-03-02T16:27:42;15.60;94.80
9847;DHT22;68671;50.084;8.794;2024-03-02T16:30:09;15.60;94.90
9847;DHT22;68671;50.084;8.794;2024-03-02T16:32:36;15.60;95.00
9847;DHT22;68671;50.084;8.794;2024-03-02T16:35:04;15.60;95.00
9847;DHT22;68671;50.084;8.794;2024-03-02T16:37:31;15.60;95.10
9847;DHT22;68671;50.084;8.794;2024-03-02T16:39:58;15.60;95.20
9847;DHT22;68671;50.084;8.794;2024-03-02T16:42:25;15.50;95.20
9847;DHT22;68671;50.084;8.794;2024-03-02T16:44:54;15.50;95.60
9847;DHT22;68671;50.084;8.794;2024-03-02T16:47:22;15.50;95.10